Time;durP1;ratioP1;P1;durP2;ratioP2;P2;SDS_P1;SDS_P2;PMS_P1;PMS_P2;Temp;Humidity;BMP_temperature;BMP_pressure;BME280_temperature;BME280_humidity;BME280_pressure;Samples;Min_cycle;Max_cycle;Signal;HPM_P1;HPM_P2
2021/10/19 00:00:08;;;;;;;;;;;;;;;;;;1030768;28;1259;-16
2021/10/19 00:00:45;;;;;;;;;;;;;;;;;;1037281;28;1267;-15
2021/10/19 00:01:15;;;;;;;;;;;;;;;;;;1030265;28;1490;-16
2021/10/19 00:01:47;;;;;;;;;;;;;;;;;;1028374;28;1263;-15
2021/10/19 00:02:18;;;;;;;;;;;;;;;;;;1021032;28;1495;-17
2021/10/19 00:02:48;;;;;;;;;;;;;;;;;;1026554;28;1187;-15
2021/10/19 00:03:19;;;;;;;;;;;;;;;;;;1030902;28;1117;-17
2021/10/19 00:03:50;;;;;;;;;;;;;;;;;;1031047;28;1329;-17
2021/10/19 00:04:20;;;;;;;;;;;;;;;;;;1031019;28;1281;-17
2021/10/19 00:04:50;;;;;;;;;;;;;;;;;;1031451;28;1350;-16
2021/10/19 00:05:21;;;;;;;;;;;;;;;;;;1027715;28;1091;-15
2021/10/19 00:05:51;;;;;;;;;;;;;;;;;;1028219;28;1019;-15
2021/10/19 00:06:22;;;;;;;;;;;;;;;;;;1027851;28;1239;-15
2021/10/19 00:06:53;;;;;;;;;;;;;;;;;;1039448;28;943;-15
2021/10/19 00:07:24;;;;;;;;;;;;;;;;;;1039015;28;1220;-15
2021/10/19 00:07:54;;;;;;;;;;;;;;;;;;1026361;28;1713;-16
2021/10/19 00:08:25;;;;;;;;;;;;;;;;;;1026863;28;1824;-16
2021/10/19 00:08:56;;;;;;;;;;;;;;;;;;1023457;28;1061;-15
2021/10/19 00:09:26;;;;;;;;;;;;;;;;;;1010618;28;1168;-15
2021/10/19 00:09:57;;;;;;;;;;;;;;;;;;1023409;28;981;-16
2021/10/19 00:10:28;;;;;;;;;;;;;;;;;;1018247;29;1911;-15
2021/10/19 00:10:58;;;;;;;;;;;;;;;;;;1015134;28;1206;-16
2021/10/19 00:11:29;;;;;;;;;;;;;;;;;;1018909;28;1145;-15
2021/10/19 00:12:00;;;;;;;;;;;;;;;;;;1022124;28;1649;-15
2021/10/19 00:12:31;;;;;;;;;;;;;;;;;;1022993;28;1106;-16
2021/10/19 00:13:01;;;;;;;;;;;;;;;;;;1018846;29;1616;-16
2021/10/19 00:13:32;;;;;;;;;;;;;;;;;;1018807;29;1370;-16
2021/10/19 00:14:02;;;;;;;;;;;;;;;;;;1023222;28;1010;-16
2021/10/19 00:14:32;;;;;;;;;;;;;;;;;;1026898;28;1588;-16
2021/10/19 00:15:04;;;;;;;;;;;;;;;;;;1031496;28;1168;-16
2021/10/19 00:15:34;;;;;;;;;;;;;;;;;;1031326;28;1356;-15
2021/10/19 00:16:05;;;;;;;;;;;;;;;;;;1030480;28;1561;-15
2021/10/19 00:16:36;;;;;;;;;;;;;;;;;;1031052;28;1105;-15
2021/10/19 00:17:06;;;;;;;;;;;;;;;;;;1030199;28;1214;-16
2021/10/19 00:17:38;;;;;;;;;;;;;;;;;;1030911;28;1191;-16
2021/10/19 00:18:08;;;;;;;;;;;;;;;;;;1027094;28;1049;-16
2021/10/19 00:18:38;;;;;;;;;;;;;;;;;;1026907;28;1270;-16
2021/10/19 00:19:09;;;;;;;;;;;;;;;;;;1026917;28;1592;-14
2021/10/19 00:19:39;;;;;;;;;;;;;;;;;;1030557;28;1409;-13
2021/10/19 00:20:12;;;;;;;;;;;;;;;;;;1026701;28;1259;-15
2021/10/19 00:20:43;;;;;;;;;;;;;;;;;;1026831;28;1294;-14
2021/10/19 00:21:13;;;;;;;;;;;;;;;;;;1026246;28;1175;-15
2021/10/19 00:21:44;;;;;;;;;;;;;;;;;;1022411;28;1186;-15
2021/10/19 00:22:15;;;;;;;;;;;;;;;;;;1019348;29;934;-15
2021/10/19 00:22:45;;;;;;;;;;;;;;;;;;1018842;28;1119;-14
2021/10/19 00:23:16;;;;;;;;;;;;;;;;;;1023209;28;1337;-15
2021/10/19 00:23:46;;;;;;;;;;;;;;;;;;1026215;28;1383;-15
2021/10/19 00:24:17;;;;;;;;;;;;;;;;;;1026579;28;1201;-16
2021/10/19 00:24:47;;;;;;;;;;;;;;;;;;1027048;28;1081;-14
2021/10/19 00:25:17;;;;;;;;;;;;;;;;;;1026296;28;1352;-16
2021/10/19 00:25:48;;;;;;;;;;;;;;;;;;1028013;28;1036;-16
2021/10/19 00:26:19;;;;;;;;;;;;;;;;;;1030534;28;1089;-15
2021/10/19 00:26:50;;;;;;;;;;;;;;;;;;1030847;28;1194;-15
2021/10/19 00:27:21;;;;;;;;;;;;;;;;;;1030745;28;1057;-16
2021/10/19 00:27:53;;;;;;;;;;;;;;;;;;1025636;28;1550;-17
2021/10/19 00:28:23;;;;;;;;;;;;;;;;;;1015230;28;1236;-16
2021/10/19 00:28:55;;;;;;;;;;;;;;;;;;1023504;28;1049;-17
2021/10/19 00:29:26;;;;;;;;;;;;;;;;;;1019516;28;1156;-15
2021/10/19 00:29:57;;;;;;;;;;;;;;;;;;1030400;28;1567;-16
2021/10/19 00:30:28;;;;;;;;;;;;;;;;;;1030950;28;1977;-15
2021/10/19 00:30:59;;;;;;;;;;;;;;;;;;1031645;28;1068;-15
2021/10/19 00:31:29;;;;;;;;;;;;;;;;;;1034848;28;915;-16
2021/10/19 00:32:00;;;;;;;;;;;;;;;;;;1026563;28;1483;-16
2021/10/19 00:32:31;;;;;;;;;;;;;;;;;;1018903;29;1114;-16
2021/10/19 00:33:01;;;;;;;;;;;;;;;;;;1014840;29;1394;-17
2021/10/19 00:33:32;;;;;;;;;;;;;;;;;;1015005;29;1070;-16
2021/10/19 00:34:03;;;;;;;;;;;;;;;;;;1015160;29;1146;-15
2021/10/19 00:34:34;;;;;;;;;;;;;;;;;;1022435;28;1615;-16
2021/10/19 00:35:05;;;;;;;;;;;;;;;;;;1022973;28;1092;-15
2021/10/19 00:35:36;;;;;;;;;;;;;;;;;;1025392;28;1593;-15
2021/10/19 00:36:07;;;;;;;;;;;;;;;;;;1030722;28;1236;-15
2021/10/19 00:36:37;;;;;;;;;;;;;;;;;;1026906;28;1164;-15
2021/10/19 00:37:08;;;;;;;;;;;;;;;;;;1018369;29;1353;-14
2021/10/19 00:37:38;;;;;;;;;;;;;;;;;;1014960;29;1125;-15
2021/10/19 00:38:09;;;;;;;;;;;;;;;;;;1015154;29;918;-14
2021/10/19 00:38:39;;;;;;;;;;;;;;;;;;1018426;29;1560;-15
2021/10/19 00:39:09;;;;;;;;;;;;;;;;;;1023044;28;1222;-16
2021/10/19 00:39:40;;;;;;;;;;;;;;;;;;1030856;28;1727;-16
2021/10/19 00:40:11;;;;;;;;;;;;;;;;;;1026795;28;972;-16
2021/10/19 00:40:42;;;;;;;;;;;;;;;;;;1027070;28;1181;-15
2021/10/19 00:41:12;;;;;;;;;;;;;;;;;;1026185;28;2726;-14
2021/10/19 00:41:43;;;;;;;;;;;;;;;;;;1018933;29;1227;-15
2021/10/19 00:42:14;;;;;;;;;;;;;;;;;;1022725;28;1181;-15
2021/10/19 00:42:45;;;;;;;;;;;;;;;;;;1022859;28;1134;-15
2021/10/19 00:43:16;;;;;;;;;;;;;;;;;;1023013;28;1051;-15
2021/10/19 00:43:48;;;;;;;;;;;;;;;;;;1027000;28;1224;-15
2021/10/19 00:44:18;;;;;;;;;;;;;;;;;;1039175;28;1006;-16
2021/10/19 00:44:49;;;;;;;;;;;;;;;;;;1035013;28;977;-17
2021/10/19 00:45:20;;;;;;;;;;;;;;;;;;1026427;28;1362;-14
2021/10/19 00:45:51;;;;;;;;;;;;;;;;;;1022858;28;1211;-16
2021/10/19 00:46:21;;;;;;;;;;;;;;;;;;1014384;29;1632;-15
2021/10/19 00:46:52;;;;;;;;;;;;;;;;;;1022999;28;1247;-15
2021/10/19 00:47:23;;;;;;;;;;;;;;;;;;1022939;28;1071;-15
2021/10/19 00:47:54;;;;;;;;;;;;;;;;;;1023095;28;989;-15
2021/10/19 00:48:26;;;;;;;;;;;;;;;;;;1030888;28;1292;-15
2021/10/19 00:48:56;;;;;;;;;;;;;;;;;;1030830;28;1618;-15
2021/10/19 00:49:27;;;;;;;;;;;;;;;;;;1030710;28;1306;-16
2021/10/19 00:49:57;;;;;;;;;;;;;;;;;;1031116;28;1202;-16
2021/10/19 00:50:28;;;;;;;;;;;;;;;;;;1022516;28;1989;-15
2021/10/19 00:50:59;;;;;;;;;;;;;;;;;;1027166;28;1203;-16
2021/10/19 00:51:29;;;;;;;;;;;;;;;;;;1026925;28;1093;-15
2021/10/19 00:52:00;;;;;;;;;;;;;;;;;;1030055;28;1195;-15
2021/10/19 00:52:31;;;;;;;;;;;;;;;;;;1031107;28;1052;-17
2021/10/19 00:53:02;;;;;;;;;;;;;;;;;;1030444;28;1095;-16
2021/10/19 00:53:33;;;;;;;;;;;;;;;;;;1022850;28;1060;-15
2021/10/19 00:54:03;;;;;;;;;;;;;;;;;;1015019;29;1112;-16
2021/10/19 00:54:34;;;;;;;;;;;;;;;;;;1014055;29;1301;-15
2021/10/19 00:55:06;;;;;;;;;;;;;;;;;;1011115;29;1179;-15
2021/10/19 00:55:37;;;;;;;;;;;;;;;;;;1014792;28;1774;-16
2021/10/19 00:56:08;;;;;;;;;;;;;;;;;;1014852;29;1170;-17
2021/10/19 00:56:38;;;;;;;;;;;;;;;;;;1014768;29;1077;-17
2021/10/19 00:57:09;;;;;;;;;;;;;;;;;;1010514;29;1602;-15
2021/10/19 00:57:40;;;;;;;;;;;;;;;;;;1022492;28;1375;-16
2021/10/19 00:58:11;;;;;;;;;;;;;;;;;;1035116;28;1017;-16
2021/10/19 00:58:42;;;;;;;;;;;;;;;;;;1034801;28;1322;-17
2021/10/19 00:59:14;;;;;;;;;;;;;;;;;;1035002;28;1187;-15
2021/10/19 00:59:46;;;;;;;;;;;;;;;;;;1018738;29;1089;-15
2021/10/19 01:00:17;;;;;;;;;;;;;;;;;;1018992;29;1057;-15
2021/10/19 01:00:48;;;;;;;;;;;;;;;;;;1015223;29;1105;-15
2021/10/19 01:01:19;;;;;;;;;;;;;;;;;;1010757;29;1225;-16
2021/10/19 01:01:50;;;;;;;;;;;;;;;;;;1014902;29;1187;-15
2021/10/19 01:02:20;;;;;;;;;;;;;;;;;;1014876;29;1061;-15
2021/10/19 01:02:51;;;;;;;;;;;;;;;;;;1014844;28;1308;-15
2021/10/19 01:03:22;;;;;;;;;;;;;;;;;;1022835;28;1146;-17
2021/10/19 01:03:52;;;;;;;;;;;;;;;;;;1022520;28;1732;-17
2021/10/19 01:04:22;;;;;;;;;;;;;;;;;;1019065;29;997;-15
2021/10/19 01:04:53;;;;;;;;;;;;;;;;;;1027042;28;1147;-15
2021/10/19 01:05:24;;;;;;;;;;;;;;;;;;1030238;28;1221;-16
2021/10/19 01:05:55;;;;;;;;;;;;;;;;;;1026366;28;971;-15
2021/10/19 01:06:25;;;;;;;;;;;;;;;;;;1018117;29;1264;-15
2021/10/19 01:06:56;;;;;;;;;;;;;;;;;;1018804;29;1085;-15
2021/10/19 01:07:27;;;;;;;;;;;;;;;;;;1014954;29;1223;-16
2021/10/19 01:07:57;;;;;;;;;;;;;;;;;;1018197;28;1758;-14
2021/10/19 01:08:28;;;;;;;;;;;;;;;;;;1022872;28;1221;-15
2021/10/19 01:09:00;;;;;;;;;;;;;;;;;;1026098;28;1412;-16
2021/10/19 01:09:32;;;;;;;;;;;;;;;;;;1022289;28;1239;-16
2021/10/19 01:10:06;;;;;;;;;;;;;;;;;;1022774;28;1934;-15
2021/10/19 01:10:39;;;;;;;;;;;;;;;;;;1022166;28;1178;-16
2021/10/19 01:11:09;;;;;;;;;;;;;;;;;;1020028;28;1076;-15
2021/10/19 01:11:40;;;;;;;;;;;;;;;;;;1020447;28;1800;-15
2021/10/19 01:12:11;;;;;;;;;;;;;;;;;;1026803;28;1188;-16
2021/10/19 01:12:42;;;;;;;;;;;;;;;;;;1030755;28;1036;-17
2021/10/19 01:13:12;;;;;;;;;;;;;;;;;;1030554;28;1325;-16
2021/10/19 01:13:43;;;;;;;;;;;;;;;;;;1030993;28;1520;-16
2021/10/19 01:14:13;;;;;;;;;;;;;;;;;;1026344;28;1642;-15
2021/10/19 01:14:44;;;;;;;;;;;;;;;;;;1027190;28;894;-17
2021/10/19 01:15:16;;;;;;;;;;;;;;;;;;1022823;28;1078;-15
2021/10/19 01:15:47;;;;;;;;;;;;;;;;;;1026759;28;1166;-14
2021/10/19 01:16:18;;;;;;;;;;;;;;;;;;1018538;29;1216;-15
2021/10/19 01:16:49;;;;;;;;;;;;;;;;;;1018769;28;1121;-15
2021/10/19 01:17:20;;;;;;;;;;;;;;;;;;1013873;29;1370;-15
2021/10/19 01:17:51;;;;;;;;;;;;;;;;;;1010718;29;1222;-15
2021/10/19 01:18:22;;;;;;;;;;;;;;;;;;1014948;28;1073;-16
2021/10/19 01:18:53;;;;;;;;;;;;;;;;;;1022518;28;1080;-16
2021/10/19 01:19:24;;;;;;;;;;;;;;;;;;1014945;29;1110;-16
2021/10/19 01:19:55;;;;;;;;;;;;;;;;;;1013930;29;1400;-16
2021/10/19 01:20:30;;;;;;;;;;;;;;;;;;1019207;28;1221;-15
2021/10/19 01:21:01;;;;;;;;;;;;;;;;;;1015214;29;1248;-18
2021/10/19 01:21:32;;;;;;;;;;;;;;;;;;1014875;29;1153;-16
2021/10/19 01:22:04;;;;;;;;;;;;;;;;;;1014914;29;1086;-16
2021/10/19 01:22:35;;;;;;;;;;;;;;;;;;1015200;28;1539;-15
2021/10/19 01:23:05;;;;;;;;;;;;;;;;;;1022977;28;1196;-16
2021/10/19 01:23:37;;;;;;;;;;;;;;;;;;1025784;28;2020;-16
2021/10/19 01:24:07;;;;;;;;;;;;;;;;;;1022368;28;1189;-14
2021/10/19 01:24:40;;;;;;;;;;;;;;;;;;1018925;29;1041;-18
2021/10/19 01:25:15;;;;;;;;;;;;;;;;;;1013551;29;1957;-16
2021/10/19 01:25:47;;;;;;;;;;;;;;;;;;1015069;29;1025;-15
2021/10/19 01:26:18;;;;;;;;;;;;;;;;;;1021978;28;1522;-15
2021/10/19 01:26:49;;;;;;;;;;;;;;;;;;1020469;28;1171;-15
2021/10/19 01:27:20;;;;;;;;;;;;;;;;;;1018773;29;1063;-16
2021/10/19 01:27:54;;;;;;;;;;;;;;;;;;1013713;29;1401;-16
2021/10/19 01:28:25;;;;;;;;;;;;;;;;;;1007952;29;1081;-17
2021/10/19 01:28:56;;;;;;;;;;;;;;;;;;1015670;28;1067;-15
2021/10/19 01:29:26;;;;;;;;;;;;;;;;;;1023923;28;1315;-15
2021/10/19 01:29:57;;;;;;;;;;;;;;;;;;1026807;28;1086;-15
2021/10/19 01:30:28;;;;;;;;;;;;;;;;;;1017984;29;1903;-17
2021/10/19 01:30:59;;;;;;;;;;;;;;;;;;1018565;29;1241;-15
2021/10/19 01:31:30;;;;;;;;;;;;;;;;;;1018984;28;1404;-15
2021/10/19 01:32:01;;;;;;;;;;;;;;;;;;1022281;28;1509;-15
2021/10/19 01:32:32;;;;;;;;;;;;;;;;;;1015257;29;961;-14
2021/10/19 01:33:03;;;;;;;;;;;;;;;;;;1018132;29;1435;-14
2021/10/19 01:33:34;;;;;;;;;;;;;;;;;;1018777;29;1074;-14
2021/10/19 01:34:04;;;;;;;;;;;;;;;;;;1018782;29;1090;-15
2021/10/19 01:34:35;;;;;;;;;;;;;;;;;;1021758;28;1868;-15
2021/10/19 01:35:06;;;;;;;;;;;;;;;;;;1026566;28;1091;-15
2021/10/19 01:35:38;;;;;;;;;;;;;;;;;;1030626;28;1421;-15
2021/10/19 01:36:09;;;;;;;;;;;;;;;;;;1021882;28;1116;-15
2021/10/19 01:36:40;;;;;;;;;;;;;;;;;;1018990;29;1199;-15
2021/10/19 01:37:11;;;;;;;;;;;;;;;;;;1018237;29;1801;-15
2021/10/19 01:37:43;;;;;;;;;;;;;;;;;;1010924;29;1268;-14
2021/10/19 01:38:14;;;;;;;;;;;;;;;;;;1011001;29;1004;-15
2021/10/19 01:38:45;;;;;;;;;;;;;;;;;;1018547;29;1270;-16
2021/10/19 01:39:16;;;;;;;;;;;;;;;;;;1023324;28;1144;-14
2021/10/19 01:39:46;;;;;;;;;;;;;;;;;;1026841;28;1999;-14
2021/10/19 01:40:17;;;;;;;;;;;;;;;;;;1030605;28;1187;-14
2021/10/19 01:40:48;;;;;;;;;;;;;;;;;;1022872;28;1099;-15
2021/10/19 01:41:19;;;;;;;;;;;;;;;;;;1021720;28;1317;-15
2021/10/19 01:41:50;;;;;;;;;;;;;;;;;;1013965;29;1293;-15
2021/10/19 01:42:21;;;;;;;;;;;;;;;;;;1018622;28;1333;-15
2021/10/19 01:42:51;;;;;;;;;;;;;;;;;;1026249;28;1235;-15
2021/10/19 01:43:23;;;;;;;;;;;;;;;;;;1026666;28;1240;-14
2021/10/19 01:43:54;;;;;;;;;;;;;;;;;;1029418;28;1246;-15
2021/10/19 01:44:25;;;;;;;;;;;;;;;;;;1015187;28;1114;-14
2021/10/19 01:44:55;;;;;;;;;;;;;;;;;;1023074;28;1032;-15
2021/10/19 01:45:26;;;;;;;;;;;;;;;;;;1022605;28;1385;-15
2021/10/19 01:45:58;;;;;;;;;;;;;;;;;;1019005;28;1036;-14
2021/10/19 01:46:28;;;;;;;;;;;;;;;;;;1022181;28;1203;-15
2021/10/19 01:46:59;;;;;;;;;;;;;;;;;;1022711;28;1137;-15
2021/10/19 01:47:29;;;;;;;;;;;;;;;;;;1026196;28;1697;-14
2021/10/19 01:48:00;;;;;;;;;;;;;;;;;;1026400;28;1490;-15
2021/10/19 01:48:32;;;;;;;;;;;;;;;;;;1026887;28;1015;-15
2021/10/19 01:49:03;;;;;;;;;;;;;;;;;;1018726;28;1158;-17
2021/10/19 01:49:33;;;;;;;;;;;;;;;;;;1011001;29;1116;-15
2021/10/19 01:50:03;;;;;;;;;;;;;;;;;;1010894;29;1968;-16
2021/10/19 01:50:35;;;;;;;;;;;;;;;;;;1010605;29;1365;-16
2021/10/19 01:51:05;;;;;;;;;;;;;;;;;;1010890;29;1090;-15
2021/10/19 01:51:36;;;;;;;;;;;;;;;;;;1014908;29;1018;-14
2021/10/19 01:52:06;;;;;;;;;;;;;;;;;;1014030;29;1157;-15
2021/10/19 01:52:37;;;;;;;;;;;;;;;;;;1018695;28;1474;-15
2021/10/19 01:53:08;;;;;;;;;;;;;;;;;;1021756;28;1470;-15
2021/10/19 01:53:39;;;;;;;;;;;;;;;;;;1022579;28;1060;-15
2021/10/19 01:54:10;;;;;;;;;;;;;;;;;;1026585;28;1037;-15
2021/10/19 01:54:41;;;;;;;;;;;;;;;;;;1026449;28;1634;-13
2021/10/19 01:55:11;;;;;;;;;;;;;;;;;;1030616;28;1089;-15
2021/10/19 01:55:42;;;;;;;;;;;;;;;;;;1022335;28;1704;-16
2021/10/19 01:56:12;;;;;;;;;;;;;;;;;;1018395;28;1171;-15
2021/10/19 01:56:43;;;;;;;;;;;;;;;;;;1023014;28;1151;-16
2021/10/19 01:57:13;;;;;;;;;;;;;;;;;;1026484;28;1478;-16
2021/10/19 01:57:43;;;;;;;;;;;;;;;;;;1031607;28;1340;-15
2021/10/19 01:58:15;;;;;;;;;;;;;;;;;;1031205;28;1358;-16
2021/10/19 01:58:46;;;;;;;;;;;;;;;;;;1022023;28;1229;-17
2021/10/19 01:59:16;;;;;;;;;;;;;;;;;;1022685;28;1499;-16
2021/10/19 01:59:46;;;;;;;;;;;;;;;;;;1022137;28;1652;-17
2021/10/19 02:00:16;;;;;;;;;;;;;;;;;;1022407;28;1165;-16
2021/10/19 02:00:47;;;;;;;;;;;;;;;;;;1031693;28;941;-15
2021/10/19 02:01:18;;;;;;;;;;;;;;;;;;1030091;28;1858;-16
2021/10/19 02:01:50;;;;;;;;;;;;;;;;;;1026989;28;1170;-14
2021/10/19 02:02:20;;;;;;;;;;;;;;;;;;1026531;28;1148;-16
2021/10/19 02:02:51;;;;;;;;;;;;;;;;;;1026092;28;1158;-16
2021/10/19 02:03:21;;;;;;;;;;;;;;;;;;1015329;28;2267;-13
2021/10/19 02:03:51;;;;;;;;;;;;;;;;;;1030535;28;1164;-15
2021/10/19 02:04:22;;;;;;;;;;;;;;;;;;1031117;28;1008;-16
2021/10/19 02:04:52;;;;;;;;;;;;;;;;;;1031454;28;791;-15
2021/10/19 02:05:23;;;;;;;;;;;;;;;;;;1030588;28;1278;-15
2021/10/19 02:05:54;;;;;;;;;;;;;;;;;;1026870;28;1187;-15
2021/10/19 02:06:25;;;;;;;;;;;;;;;;;;1025761;28;1477;-15
2021/10/19 02:06:56;;;;;;;;;;;;;;;;;;1026462;28;1142;-15
2021/10/19 02:07:26;;;;;;;;;;;;;;;;;;1022557;28;1155;-15
2021/10/19 02:07:58;;;;;;;;;;;;;;;;;;1021194;28;1561;-16
2021/10/19 02:08:29;;;;;;;;;;;;;;;;;;1014955;28;1315;-15
2021/10/19 02:09:00;;;;;;;;;;;;;;;;;;1018911;28;1307;-16
2021/10/19 02:09:30;;;;;;;;;;;;;;;;;;1018085;29;1208;-16
2021/10/19 02:10:02;;;;;;;;;;;;;;;;;;1019099;29;1159;-16
2021/10/19 02:10:34;;;;;;;;;;;;;;;;;;1018564;28;1978;-18
2021/10/19 02:11:05;;;;;;;;;;;;;;;;;;1015060;29;980;-15
2021/10/19 02:11:36;;;;;;;;;;;;;;;;;;1010324;29;1128;-16
2021/10/19 02:12:07;;;;;;;;;;;;;;;;;;1010700;29;1105;-15
2021/10/19 02:12:38;;;;;;;;;;;;;;;;;;1006604;29;1273;-16
2021/10/19 02:13:09;;;;;;;;;;;;;;;;;;1006442;29;1370;-16
2021/10/19 02:13:39;;;;;;;;;;;;;;;;;;1018448;28;1269;-18
2021/10/19 02:14:10;;;;;;;;;;;;;;;;;;1023016;28;966;-15
2021/10/19 02:14:40;;;;;;;;;;;;;;;;;;1025933;28;1346;-15
2021/10/19 02:15:11;;;;;;;;;;;;;;;;;;1026439;28;1175;-15
2021/10/19 02:15:42;;;;;;;;;;;;;;;;;;1022257;28;1709;-15
2021/10/19 02:16:13;;;;;;;;;;;;;;;;;;1026297;28;1525;-15
2021/10/19 02:16:43;;;;;;;;;;;;;;;;;;1026774;28;1091;-15
2021/10/19 02:17:14;;;;;;;;;;;;;;;;;;1025416;28;1650;-15
2021/10/19 02:17:45;;;;;;;;;;;;;;;;;;1018573;28;962;-17
2021/10/19 02:18:16;;;;;;;;;;;;;;;;;;1026237;28;1181;-15
2021/10/19 02:18:46;;;;;;;;;;;;;;;;;;1018409;29;1371;-16
2021/10/19 02:19:17;;;;;;;;;;;;;;;;;;1018800;28;1180;-17
2021/10/19 02:19:48;;;;;;;;;;;;;;;;;;1018001;29;1688;-16
2021/10/19 02:20:19;;;;;;;;;;;;;;;;;;1018768;28;1171;-15
2021/10/19 02:20:50;;;;;;;;;;;;;;;;;;1010938;29;1082;-16
2021/10/19 02:21:21;;;;;;;;;;;;;;;;;;1010165;29;1424;-15
2021/10/19 02:21:52;;;;;;;;;;;;;;;;;;1018574;29;996;-15
2021/10/19 02:22:23;;;;;;;;;;;;;;;;;;1018562;28;1164;-16
2021/10/19 02:22:53;;;;;;;;;;;;;;;;;;1022311;28;1126;-16
2021/10/19 02:23:24;;;;;;;;;;;;;;;;;;1022812;28;1181;-16
2021/10/19 02:23:55;;;;;;;;;;;;;;;;;;1021764;28;1810;-16
2021/10/19 02:24:25;;;;;;;;;;;;;;;;;;1022608;28;991;-15
2021/10/19 02:24:57;;;;;;;;;;;;;;;;;;1018309;29;1320;-15
2021/10/19 02:25:28;;;;;;;;;;;;;;;;;;1022300;28;1214;-15
2021/10/19 02:25:58;;;;;;;;;;;;;;;;;;1026329;28;1169;-15
2021/10/19 02:26:29;;;;;;;;;;;;;;;;;;1026114;28;1284;-17
2021/10/19 02:26:59;;;;;;;;;;;;;;;;;;1026624;28;1116;-15
2021/10/19 02:27:30;;;;;;;;;;;;;;;;;;1018711;29;1053;-16
2021/10/19 02:28:01;;;;;;;;;;;;;;;;;;1013730;29;1714;-15
2021/10/19 02:28:31;;;;;;;;;;;;;;;;;;1010642;29;1531;-15
2021/10/19 02:29:02;;;;;;;;;;;;;;;;;;1010764;29;1230;-16
2021/10/19 02:29:33;;;;;;;;;;;;;;;;;;1014446;29;1147;-15
2021/10/19 02:30:04;;;;;;;;;;;;;;;;;;1010981;29;963;-15
2021/10/19 02:30:35;;;;;;;;;;;;;;;;;;1018384;29;1318;-16
2021/10/19 02:31:06;;;;;;;;;;;;;;;;;;1014618;29;1084;-16
2021/10/19 02:31:36;;;;;;;;;;;;;;;;;;1019283;28;1290;-16
2021/10/19 02:32:07;;;;;;;;;;;;;;;;;;1026164;28;1198;-17
2021/10/19 02:32:39;;;;;;;;;;;;;;;;;;1018193;29;1258;-15
2021/10/19 02:33:10;;;;;;;;;;;;;;;;;;1014492;29;1058;-17
2021/10/19 02:33:40;;;;;;;;;;;;;;;;;;1015249;29;1121;-14
2021/10/19 02:34:11;;;;;;;;;;;;;;;;;;1018943;28;941;-15
2021/10/19 02:34:41;;;;;;;;;;;;;;;;;;1031119;28;1800;-15
2021/10/19 02:35:32;;;;;;;;;;;;;;;;;;1030872;28;1124;-16
2021/10/19 02:36:02;;;;;;;;;;;;;;;;;;1017982;28;1208;-16
2021/10/19 02:36:33;;;;;;;;;;;;;;;;;;1026212;28;1721;-15
2021/10/19 02:37:04;;;;;;;;;;;;;;;;;;1017863;29;1425;-15
2021/10/19 02:37:35;;;;;;;;;;;;;;;;;;1018662;29;1122;-15
2021/10/19 02:38:05;;;;;;;;;;;;;;;;;;1014703;28;1100;-15
2021/10/19 02:38:36;;;;;;;;;;;;;;;;;;1021856;28;1589;-15
2021/10/19 02:39:07;;;;;;;;;;;;;;;;;;1006773;29;1229;-16
2021/10/19 02:39:38;;;;;;;;;;;;;;;;;;1006282;29;1638;-15
2021/10/19 02:40:08;;;;;;;;;;;;;;;;;;1010476;29;1371;-15
2021/10/19 02:40:39;;;;;;;;;;;;;;;;;;1011676;28;1021;-17
2021/10/19 02:41:09;;;;;;;;;;;;;;;;;;1030642;28;1346;-15
2021/10/19 02:41:39;;;;;;;;;;;;;;;;;;1031347;28;1035;-15
2021/10/19 02:42:10;;;;;;;;;;;;;;;;;;1030917;28;1403;-15
2021/10/19 02:42:41;;;;;;;;;;;;;;;;;;1025766;28;1628;-15
2021/10/19 02:43:12;;;;;;;;;;;;;;;;;;1022377;28;1096;-16
2021/10/19 02:43:43;;;;;;;;;;;;;;;;;;1018144;29;1131;-14
2021/10/19 02:44:13;;;;;;;;;;;;;;;;;;1014685;29;1108;-15
2021/10/19 02:44:44;;;;;;;;;;;;;;;;;;1018605;29;1125;-16
2021/10/19 02:45:15;;;;;;;;;;;;;;;;;;1014171;29;1204;-15
2021/10/19 02:45:45;;;;;;;;;;;;;;;;;;1018749;29;1074;-15
2021/10/19 02:46:16;;;;;;;;;;;;;;;;;;1014340;28;1565;-15
2021/10/19 02:46:47;;;;;;;;;;;;;;;;;;1018457;28;2257;-15
2021/10/19 02:47:17;;;;;;;;;;;;;;;;;;1026380;28;1042;-15
2021/10/19 02:47:48;;;;;;;;;;;;;;;;;;1029504;28;1415;-16
2021/10/19 02:48:18;;;;;;;;;;;;;;;;;;1030515;28;1012;-17
2021/10/19 02:48:48;;;;;;;;;;;;;;;;;;1030873;28;1154;-15
2021/10/19 02:49:19;;;;;;;;;;;;;;;;;;1034277;28;1298;-16
2021/10/19 02:49:50;;;;;;;;;;;;;;;;;;1026459;28;1084;-16
2021/10/19 02:50:20;;;;;;;;;;;;;;;;;;1026139;28;1978;-15
2021/10/19 02:50:51;;;;;;;;;;;;;;;;;;1026373;28;1275;-15
2021/10/19 02:51:21;;;;;;;;;;;;;;;;;;1022668;28;1523;-16
2021/10/19 02:51:52;;;;;;;;;;;;;;;;;;1026135;28;1312;-15
2021/10/19 02:52:22;;;;;;;;;;;;;;;;;;1026491;28;1210;-16
2021/10/19 02:52:53;;;;;;;;;;;;;;;;;;1025810;28;1583;-15
2021/10/19 02:53:24;;;;;;;;;;;;;;;;;;1029655;28;1313;-15
2021/10/19 02:53:54;;;;;;;;;;;;;;;;;;1030538;28;1200;-16
2021/10/19 02:54:25;;;;;;;;;;;;;;;;;;1025984;28;1649;-14
2021/10/19 02:54:55;;;;;;;;;;;;;;;;;;1018513;29;1059;-14
2021/10/19 02:55:26;;;;;;;;;;;;;;;;;;1018846;29;1111;-15
2021/10/19 02:55:56;;;;;;;;;;;;;;;;;;1018596;29;1133;-14
2021/10/19 02:56:26;;;;;;;;;;;;;;;;;;1027536;28;933;-14
2021/10/19 02:56:57;;;;;;;;;;;;;;;;;;1027409;28;1019;-15
2021/10/19 02:57:27;;;;;;;;;;;;;;;;;;1027358;28;1030;-16
2021/10/19 02:57:58;;;;;;;;;;;;;;;;;;1026439;28;985;-17
2021/10/19 02:58:28;;;;;;;;;;;;;;;;;;1025967;28;2004;-15
2021/10/19 02:58:59;;;;;;;;;;;;;;;;;;1026530;28;1240;-14
2021/10/19 02:59:29;;;;;;;;;;;;;;;;;;1026054;28;1392;-16
2021/10/19 03:00:00;;;;;;;;;;;;;;;;;;1018629;29;1102;-16
2021/10/19 03:00:31;;;;;;;;;;;;;;;;;;1030351;28;1275;-16
2021/10/19 03:01:02;;;;;;;;;;;;;;;;;;1030695;28;949;-15
2021/10/19 03:01:32;;;;;;;;;;;;;;;;;;1026555;28;1175;-16
2021/10/19 03:02:03;;;;;;;;;;;;;;;;;;1026933;28;934;-15
2021/10/19 03:02:33;;;;;;;;;;;;;;;;;;1026507;28;1321;-16
2021/10/19 03:03:04;;;;;;;;;;;;;;;;;;1027419;28;1109;-15
2021/10/19 03:03:34;;;;;;;;;;;;;;;;;;1021424;28;1692;-15
2021/10/19 03:04:05;;;;;;;;;;;;;;;;;;1021421;28;1398;-13
2021/10/19 03:04:35;;;;;;;;;;;;;;;;;;1022538;28;1107;-14
2021/10/19 03:05:06;;;;;;;;;;;;;;;;;;1017496;29;1165;-15
2021/10/19 03:05:37;;;;;;;;;;;;;;;;;;1022443;28;1246;-16
2021/10/19 03:06:07;;;;;;;;;;;;;;;;;;1014193;29;1134;-16
2021/10/19 03:06:38;;;;;;;;;;;;;;;;;;1014521;29;1192;-16
2021/10/19 03:07:09;;;;;;;;;;;;;;;;;;1018293;29;1113;-14
2021/10/19 03:07:39;;;;;;;;;;;;;;;;;;1017965;28;1472;-16
2021/10/19 03:08:10;;;;;;;;;;;;;;;;;;1026381;28;1254;-16
2021/10/19 03:08:41;;;;;;;;;;;;;;;;;;1026394;28;1337;-17
2021/10/19 03:09:11;;;;;;;;;;;;;;;;;;1021561;28;1477;-16
2021/10/19 03:09:42;;;;;;;;;;;;;;;;;;1018165;28;1571;-15
2021/10/19 03:10:14;;;;;;;;;;;;;;;;;;1018110;29;1923;-16
2021/10/19 03:10:45;;;;;;;;;;;;;;;;;;1019265;28;1054;-14
2021/10/19 03:11:15;;;;;;;;;;;;;;;;;;1022538;28;1200;-15
2021/10/19 03:11:46;;;;;;;;;;;;;;;;;;1018559;29;1335;-16
2021/10/19 03:12:16;;;;;;;;;;;;;;;;;;1018689;29;1009;-15
2021/10/19 03:12:47;;;;;;;;;;;;;;;;;;1018627;28;1120;-15
2021/10/19 03:13:17;;;;;;;;;;;;;;;;;;1026429;28;1293;-15
2021/10/19 03:13:48;;;;;;;;;;;;;;;;;;1026522;28;1041;-15
2021/10/19 03:14:19;;;;;;;;;;;;;;;;;;1025450;28;1221;-15
2021/10/19 03:14:49;;;;;;;;;;;;;;;;;;1026197;28;1250;-17
2021/10/19 03:15:23;;;;;;;;;;;;;;;;;;1022138;28;1178;-17
2021/10/19 03:15:54;;;;;;;;;;;;;;;;;;1022503;28;1302;-15
2021/10/19 03:16:25;;;;;;;;;;;;;;;;;;1022409;28;1249;-16
2021/10/19 03:16:55;;;;;;;;;;;;;;;;;;1018948;28;1224;-15
2021/10/19 03:17:26;;;;;;;;;;;;;;;;;;1022397;28;1066;-16
2021/10/19 03:17:56;;;;;;;;;;;;;;;;;;1022539;28;1002;-16
2021/10/19 03:18:26;;;;;;;;;;;;;;;;;;1021767;28;1288;-15
2021/10/19 03:18:57;;;;;;;;;;;;;;;;;;1026470;28;1002;-14
2021/10/19 03:19:27;;;;;;;;;;;;;;;;;;1027417;28;1116;-15
2021/10/19 03:19:58;;;;;;;;;;;;;;;;;;1027035;28;988;-17
2021/10/19 03:20:30;;;;;;;;;;;;;;;;;;1030566;28;991;-15
2021/10/19 03:21:04;;;;;;;;;;;;;;;;;;1030155;28;1670;-15
2021/10/19 03:21:34;;;;;;;;;;;;;;;;;;1026519;28;998;-16
2021/10/19 03:22:04;;;;;;;;;;;;;;;;;;1026487;28;1242;-15
2021/10/19 03:22:35;;;;;;;;;;;;;;;;;;1026339;28;1189;-15
2021/10/19 03:23:06;;;;;;;;;;;;;;;;;;1022371;28;1193;-15
2021/10/19 03:23:36;;;;;;;;;;;;;;;;;;1022334;28;1658;-16
2021/10/19 03:24:06;;;;;;;;;;;;;;;;;;1022400;28;1283;-15
2021/10/19 03:24:37;;;;;;;;;;;;;;;;;;1022642;28;1116;-16
2021/10/19 03:25:07;;;;;;;;;;;;;;;;;;1026919;28;1489;-15
2021/10/19 03:25:38;;;;;;;;;;;;;;;;;;1027286;28;1165;-16
2021/10/19 03:26:09;;;;;;;;;;;;;;;;;;1025664;28;1559;-15
2021/10/19 03:26:39;;;;;;;;;;;;;;;;;;1026357;28;1142;-15
2021/10/19 03:27:10;;;;;;;;;;;;;;;;;;1030287;28;1223;-16
2021/10/19 03:27:40;;;;;;;;;;;;;;;;;;1030464;28;1275;-17
2021/10/19 03:28:11;;;;;;;;;;;;;;;;;;1030712;28;1055;-15
2021/10/19 03:28:43;;;;;;;;;;;;;;;;;;1025909;28;1139;-17
2021/10/19 03:29:13;;;;;;;;;;;;;;;;;;1017733;28;1232;-14
2021/10/19 03:29:44;;;;;;;;;;;;;;;;;;1022545;28;1089;-15
2021/10/19 03:30:14;;;;;;;;;;;;;;;;;;1022040;28;1902;-15
2021/10/19 03:30:45;;;;;;;;;;;;;;;;;;1022471;28;1182;-15
2021/10/19 03:31:16;;;;;;;;;;;;;;;;;;1030345;28;1000;-16
2021/10/19 03:31:46;;;;;;;;;;;;;;;;;;1029636;28;1653;-15
2021/10/19 03:32:17;;;;;;;;;;;;;;;;;;1030462;28;1154;-16
2021/10/19 03:32:47;;;;;;;;;;;;;;;;;;1025967;28;1112;-16
2021/10/19 03:33:18;;;;;;;;;;;;;;;;;;1022349;28;1181;-15
2021/10/19 03:33:49;;;;;;;;;;;;;;;;;;1026245;28;1045;-14
2021/10/19 03:34:20;;;;;;;;;;;;;;;;;;1021752;28;1590;-16